createdAt,value
2022-11-02T00:00:51.222Z,13.90
2022-11-02T00:03:29.619Z,9.10
2022-11-02T00:05:56.329Z,7.50
2022-11-02T00:08:23.166Z,8.00
2022-11-02T00:10:49.759Z,8.40
2022-11-02T00:13:19.625Z,7.80
2022-11-02T00:15:46.689Z,8.00
2022-11-02T00:18:14.441Z,8.00
2022-11-02T00:20:42.694Z,12.80
2022-11-02T00:23:12.802Z,6.90
2022-11-02T00:25:43.684Z,7.50
2022-11-02T00:28:10.822Z,10.40
2022-11-02T00:30:37.838Z,7.30
2022-11-02T00:33:04.828Z,7.90
2022-11-02T00:35:33.365Z,8.10
2022-11-02T00:38:00.234Z,7.70
2022-11-02T00:40:27.774Z,7.90
2022-11-02T00:42:54.510Z,9.30
2022-11-02T00:45:22.506Z,9.50
2022-11-02T00:47:50.153Z,9.40
2022-11-02T00:50:18.739Z,10.20
2022-11-02T00:52:45.912Z,7.20
2022-11-02T00:55:14.714Z,8.00
2022-11-02T00:57:43.768Z,8.10
2022-11-02T01:00:42.226Z,9.30
2022-11-02T01:11:56.731Z,7.10
2022-11-02T01:15:49.469Z,8.00
2022-11-02T01:18:33.249Z,8.50
2022-11-02T01:21:05.804Z,8.50
2022-11-02T01:23:48.420Z,9.00
2022-11-02T01:26:35.569Z,7.30
2022-11-02T01:29:22.757Z,9.00
2022-11-02T01:36:55.136Z,11.50
2022-11-02T01:43:24.826Z,9.30
2022-11-02T01:45:55.896Z,9.10
2022-11-02T01:48:31.603Z,14.00
2022-11-02T01:51:01.343Z,9.10
2022-11-02T01:53:29.770Z,8.80
2022-11-02T01:55:58.192Z,9.20
2022-11-02T01:58:26.404Z,10.60
2022-11-02T02:00:54.594Z,13.10
2022-11-02T02:03:21.578Z,12.20
2022-11-02T02:06:06.006Z,9.00
2022-11-02T02:08:35.776Z,8.70
2022-11-02T02:11:02.516Z,10.00
2022-11-02T02:13:29.317Z,10.60
2022-11-02T02:16:18.402Z,10.10
2022-11-02T02:19:06.069Z,10.50
2022-11-02T02:21:50.870Z,11.70
2022-11-02T02:24:30.245Z,11.20
2022-11-02T02:27:15.865Z,9.20
2022-11-02T02:30:04.362Z,8.80
2022-11-02T02:32:35.921Z,9.10
2022-11-02T02:35:14.494Z,8.80
2022-11-02T02:37:50.913Z,9.20
2022-11-02T02:40:41.013Z,8.20
2022-11-02T02:43:36.173Z,7.90
2022-11-02T02:46:08.009Z,9.00
2022-11-02T02:48:38.212Z,7.30
2022-11-02T02:51:22.144Z,8.10
2022-11-02T02:54:14.552Z,8.50
2022-11-02T02:59:28.604Z,7.60
2022-11-02T03:01:56.739Z,8.80
2022-11-02T03:04:25.235Z,8.80
2022-11-02T03:06:56.008Z,10.80
2022-11-02T03:09:34.977Z,11.20
2022-11-02T03:12:33.314Z,8.70
2022-11-02T03:15:00.198Z,8.00
2022-11-02T03:17:46.784Z,7.40
2022-11-02T03:20:30.273Z,6.70
2022-11-02T03:23:21.250Z,7.60
2022-11-02T03:26:14.058Z,9.60
2022-11-02T03:28:58.120Z,9.00
2022-11-02T03:31:25.173Z,7.50
2022-11-02T03:34:03.911Z,7.30
2022-11-02T03:36:42.156Z,7.40
2022-11-02T03:39:12.268Z,7.40
2022-11-02T03:41:42.189Z,6.50
2022-11-02T03:44:15.021Z,7.30
2022-11-02T03:46:44.248Z,6.90
2022-11-02T03:49:17.752Z,9.10
2022-11-02T03:51:45.737Z,8.20
2022-11-02T03:54:55.990Z,8.90
2022-11-02T03:57:29.489Z,9.00
2022-11-02T04:00:18.249Z,8.60
2022-11-02T04:03:03.580Z,8.30
2022-11-02T04:05:34.165Z,9.40
2022-11-02T04:08:22.786Z,10.20
2022-11-02T04:11:11.695Z,10.20
2022-11-02T04:13:57.586Z,11.30
2022-11-02T04:16:28.148Z,11.40
2022-11-02T04:19:14.600Z,11.70
2022-11-02T04:22:02.756Z,12.00
2022-11-02T04:24:49.185Z,11.80
2022-11-02T04:27:20.553Z,11.90
2022-11-02T04:29:48.743Z,14.40
2022-11-02T04:32:36.090Z,15.10
2022-11-02T04:35:05.337Z,21.50
2022-11-02T04:38:00.284Z,17.60
2022-11-02T04:40:28.320Z,17.80
2022-11-02T04:42:55.835Z,17.40
2022-11-02T04:45:22.621Z,17.60
2022-11-02T04:47:49.409Z,19.20
2022-11-02T04:50:16.489Z,24.20
2022-11-02T04:52:43.737Z,38.00
2022-11-02T04:55:10.773Z,24.00
2022-11-02T04:57:38.400Z,24.00
2022-11-02T05:00:07.170Z,22.40
2022-11-02T05:02:34.334Z,40.10
2022-11-02T05:05:01.448Z,26.20
2022-11-02T05:07:28.216Z,37.60
2022-11-02T05:09:55.065Z,28.40
2022-11-02T05:12:26.618Z,18.70
2022-11-02T05:14:55.811Z,65.00
2022-11-02T05:17:22.909Z,20.50
2022-11-02T05:19:50.208Z,19.00
2022-11-02T05:22:17.664Z,13.00
2022-11-02T05:24:44.412Z,10.70
2022-11-02T05:27:11.274Z,10.60
2022-11-02T05:29:38.564Z,11.50
2022-11-02T05:32:05.652Z,12.70
2022-11-02T05:34:32.654Z,13.70
2022-11-02T05:36:59.492Z,13.80
2022-11-02T05:39:26.382Z,13.00
2022-11-02T05:41:53.324Z,11.20
2022-11-02T05:44:20.760Z,11.00
2022-11-02T05:46:47.785Z,17.50
2022-11-02T05:49:14.684Z,15.30
2022-11-02T05:51:43.402Z,22.10
2022-11-02T05:54:53.673Z,12.50
2022-11-02T05:57:21.058Z,15.80
2022-11-02T05:59:49.546Z,30.10
2022-11-02T06:02:24.770Z,18.80
2022-11-02T06:04:53.275Z,36.80
2022-11-02T06:07:21.959Z,29.90
2022-11-02T06:09:49.659Z,26.40
2022-11-02T06:12:22.694Z,32.30
2022-11-02T06:14:49.911Z,33.70
2022-11-02T06:17:17.720Z,17.90
2022-11-02T06:19:46.793Z,22.20
2022-11-02T06:22:14.337Z,35.00
2022-11-02T06:24:49.445Z,29.80
2022-11-02T06:30:11.670Z,15.70
2022-11-02T06:32:46.482Z,28.00
2022-11-02T06:35:20.558Z,15.10
2022-11-02T06:37:59.375Z,26.20
2022-11-02T06:40:28.884Z,24.40
2022-11-02T08:11:17.342Z,22.10
2022-11-02T08:14:25.246Z,23.30
2022-11-02T08:20:04.755Z,18.90
2022-11-02T08:22:45.206Z,21.00
2022-11-02T08:25:29.825Z,20.30
2022-11-02T08:28:01.836Z,20.10
2022-11-02T08:30:50.904Z,20.30
2022-11-02T08:33:30.017Z,23.60
2022-11-02T08:39:18.479Z,21.90
2022-11-02T08:41:56.899Z,19.60
2022-11-02T08:44:37.606Z,21.60
2022-11-02T08:47:13.713Z,21.30
2022-11-02T08:49:42.067Z,21.10
2022-11-02T08:52:12.223Z,23.90
2022-11-02T08:55:11.108Z,35.60
2022-11-02T08:57:57.666Z,41.00
2022-11-02T09:00:42.321Z,65.70
2022-11-02T09:05:40.668Z,30.50
2022-11-02T09:07:47.438Z,28.10
2022-11-02T09:10:47.089Z,29.70
2022-11-02T09:13:31.025Z,33.80
2022-11-02T09:16:16.712Z,32.70
2022-11-02T09:19:03.150Z,25.10
2022-11-02T09:21:53.977Z,24.00
2022-11-02T09:24:22.072Z,22.10
2022-11-02T09:26:53.317Z,22.00
2022-11-02T09:31:57.618Z,23.00
2022-11-02T09:34:38.691Z,20.80
2022-11-02T09:37:22.875Z,21.70
2022-11-02T09:39:56.265Z,24.90
2022-11-02T09:42:42.946Z,37.00
2022-11-02T09:45:18.443Z,22.00
2022-11-02T09:48:28.570Z,21.70
2022-11-02T09:51:27.037Z,23.80
2022-11-02T09:54:17.677Z,38.70
2022-11-02T09:57:15.435Z,26.00
2022-11-02T09:59:44.528Z,22.60
2022-11-02T10:02:45.787Z,20.40
2022-11-02T10:05:39.886Z,20.80
2022-11-02T10:08:23.218Z,26.10
2022-11-02T10:10:58.195Z,26.00
2022-11-02T10:13:51.297Z,43.70
2022-11-02T10:16:57.004Z,31.70
2022-11-02T10:19:26.455Z,24.30
2022-11-02T10:22:33.578Z,24.80
2022-11-02T10:28:36.375Z,24.30
2022-11-02T10:31:43.182Z,23.80
2022-11-02T10:34:58.524Z,24.30
2022-11-02T10:38:13.505Z,24.70
2022-11-02T10:41:14.381Z,24.50
2022-11-02T10:44:22.100Z,24.90
2022-11-02T10:47:21.102Z,25.30
2022-11-02T10:49:59.708Z,22.80
2022-11-02T10:52:39.401Z,22.50
2022-11-02T10:55:15.860Z,23.80
2022-11-02T10:57:43.453Z,25.20
2022-11-02T11:00:25.787Z,29.00
2022-11-02T11:03:22.675Z,39.00
2022-11-02T11:05:52.661Z,67.70
2022-11-02T11:08:37.643Z,50.10
2022-11-02T11:15:48.873Z,29.50
2022-11-02T11:21:13.616Z,60.40
2022-11-02T11:23:48.765Z,44.40
2022-11-02T11:28:59.319Z,28.70
2022-11-02T11:31:27.534Z,37.20
2022-11-02T11:37:27.392Z,26.40
2022-11-02T11:40:25.689Z,32.20
2022-11-02T11:43:00.049Z,33.70
2022-11-02T11:45:33.481Z,47.60
2022-11-02T11:48:11.767Z,43.10
2022-11-02T11:50:46.926Z,36.10
2022-11-02T11:53:38.765Z,32.50
2022-11-02T11:56:25.746Z,40.20
2022-11-02T11:58:58.950Z,33.90
2022-11-02T12:01:41.816Z,26.90
2022-11-02T12:04:09.357Z,28.90
2022-11-02T12:06:57.737Z,26.70
2022-11-02T12:09:25.627Z,24.70
2022-11-02T12:12:06.892Z,25.60
2022-11-02T12:15:05.639Z,26.20
2022-11-02T12:17:46.015Z,27.20
2022-11-02T12:20:38.788Z,31.50
2022-11-02T12:23:31.617Z,27.20
2022-11-02T12:26:23.425Z,28.20
2022-11-02T12:28:59.500Z,31.70
2022-11-02T12:31:39.684Z,40.90
2022-11-02T12:34:28.077Z,35.30
2022-11-02T12:37:40.287Z,32.00
2022-11-02T12:43:34.139Z,27.00
2022-11-02T12:46:16.065Z,26.60
2022-11-02T12:49:07.836Z,28.20
2022-11-02T12:52:03.933Z,29.90
2022-11-02T12:54:41.948Z,28.30
2022-11-02T12:57:14.370Z,30.00
2022-11-02T12:59:44.029Z,28.00
2022-11-02T13:02:14.102Z,33.30
2022-11-02T13:04:40.987Z,32.60
2022-11-02T13:07:14.681Z,35.00
2022-11-02T13:10:04.946Z,32.40
2022-11-02T13:12:35.822Z,31.90
2022-11-02T13:15:09.324Z,31.70
2022-11-02T13:18:06.325Z,28.60
2022-11-02T13:20:46.915Z,29.30
2022-11-02T13:26:03.791Z,35.20
2022-11-02T13:28:33.535Z,28.50
2022-11-02T13:31:07.629Z,25.80
2022-11-02T13:33:47.348Z,25.90
2022-11-02T13:36:15.667Z,26.70
2022-11-02T13:39:02.097Z,27.60
2022-11-02T13:41:39.776Z,29.60
2022-11-02T13:44:31.323Z,27.90
2022-11-02T13:47:26.375Z,27.10
2022-11-02T13:49:56.280Z,26.00
2022-11-02T13:52:43.413Z,26.80
2022-11-02T13:55:21.195Z,32.10
2022-11-02T13:57:59.915Z,33.50
2022-11-02T14:01:01.282Z,29.90
2022-11-02T14:03:45.589Z,28.70
2022-11-02T14:06:14.849Z,29.70
2022-11-02T14:08:46.777Z,34.40
2022-11-02T14:11:13.771Z,28.00
2022-11-02T14:13:55.667Z,28.40
2022-11-02T14:16:50.204Z,26.40
2022-11-02T14:19:19.464Z,27.10
2022-11-02T14:21:58.764Z,32.00
2022-11-02T14:24:35.640Z,30.90
2022-11-02T14:27:22.821Z,29.90
2022-11-02T14:29:49.962Z,27.60
2022-11-02T14:32:30.324Z,26.10
2022-11-02T14:35:22.496Z,27.30
2022-11-02T14:38:08.637Z,27.90
2022-11-02T14:40:59.816Z,35.70
2022-11-02T14:43:52.602Z,30.20
2022-11-02T14:46:45.756Z,31.50
2022-11-02T14:49:25.523Z,36.40
2022-11-02T14:52:24.548Z,36.20
2022-11-02T14:54:54.237Z,32.10
2022-11-02T14:57:24.045Z,31.20
2022-11-02T14:59:54.362Z,31.70
2022-11-02T15:02:40.297Z,35.50
2022-11-02T15:05:27.130Z,38.50
2022-11-02T15:08:01.674Z,50.60
2022-11-02T15:10:31.222Z,47.20
2022-11-02T15:13:20.250Z,36.40
2022-11-02T15:15:50.004Z,39.20
2022-11-02T15:18:28.773Z,38.40
2022-11-02T15:21:11.191Z,39.50
2022-11-02T15:23:57.429Z,43.30
2022-11-02T15:26:46.632Z,47.00
2022-11-02T15:29:36.264Z,39.50
2022-11-02T15:32:09.369Z,46.70
2022-11-02T15:34:41.964Z,43.80
2022-11-02T15:37:17.505Z,43.90
2022-11-02T15:39:51.967Z,46.20
2022-11-02T15:42:56.826Z,43.80
2022-11-02T15:45:53.400Z,45.20
2022-11-02T15:48:47.419Z,47.70
2022-11-02T15:51:20.528Z,42.50
2022-11-02T15:53:52.739Z,34.40
2022-11-02T15:56:53.807Z,36.00
2022-11-02T15:59:42.402Z,34.60
2022-11-02T16:02:17.975Z,30.70
2022-11-02T16:04:47.539Z,33.50
2022-11-02T16:07:16.935Z,35.00
2022-11-02T16:09:45.905Z,37.30
2022-11-02T16:12:18.316Z,34.30
2022-11-02T16:14:57.738Z,43.00
2022-11-02T16:17:26.891Z,31.90
2022-11-02T16:20:19.277Z,33.70
2022-11-02T16:22:47.643Z,33.30
2022-11-02T16:25:32.637Z,33.80
2022-11-02T16:28:19.027Z,33.50
2022-11-02T16:31:08.740Z,35.40
2022-11-02T16:33:46.144Z,34.70
2022-11-02T16:36:30.724Z,37.40
2022-11-02T16:39:00.884Z,34.70
2022-11-02T16:41:30.364Z,38.10
2022-11-02T16:44:00.861Z,42.10
2022-11-02T16:46:31.007Z,37.60
2022-11-02T16:49:17.965Z,37.60
2022-11-02T16:51:49.356Z,40.10
2022-11-02T16:54:36.806Z,48.10
2022-11-02T16:57:19.033Z,40.70
2022-11-02T16:59:55.176Z,39.10
2022-11-02T17:02:33.784Z,38.60
2022-11-02T17:05:05.905Z,40.20
2022-11-02T17:07:40.031Z,39.40
2022-11-02T17:10:08.730Z,39.30
2022-11-02T17:12:41.462Z,41.40
2022-11-02T17:15:18.489Z,41.00
2022-11-02T17:17:46.517Z,38.10
2022-11-02T17:20:15.915Z,36.90
2022-11-02T17:22:56.676Z,36.80
2022-11-02T17:25:29.802Z,36.60
2022-11-02T17:27:58.872Z,38.40
2022-11-02T17:30:35.074Z,39.80
2022-11-02T17:33:24.193Z,40.90
2022-11-02T17:35:54.436Z,39.10
2022-11-02T17:38:26.802Z,37.60
2022-11-02T17:40:54.646Z,36.70
2022-11-02T17:43:23.345Z,37.50
2022-11-02T17:46:00.503Z,47.00
2022-11-02T17:48:31.735Z,40.30
2022-11-02T17:51:01.720Z,61.10
2022-11-02T17:53:28.715Z,40.10
2022-11-02T17:55:55.960Z,39.60
2022-11-02T17:58:22.770Z,37.60
2022-11-02T18:00:51.739Z,42.10
2022-11-02T18:03:22.364Z,57.00
2022-11-02T18:05:52.534Z,48.70
2022-11-02T18:08:21.441Z,51.30
2022-11-02T18:10:51.603Z,62.90
2022-11-02T18:13:21.211Z,52.50
2022-11-02T18:15:48.512Z,50.00
2022-11-02T18:18:15.701Z,54.30
2022-11-02T18:20:42.558Z,56.50
2022-11-02T18:23:16.408Z,58.70
2022-11-02T18:25:43.216Z,51.90
2022-11-02T18:28:10.090Z,44.80
2022-11-02T18:30:40.905Z,41.30
2022-11-02T18:33:13.027Z,42.80
2022-11-02T18:35:41.979Z,56.80
2022-11-02T18:38:09.392Z,64.60
2022-11-02T18:40:36.136Z,59.90
2022-11-02T18:43:03.471Z,64.40
2022-11-02T18:45:30.708Z,60.60
2022-11-02T18:47:57.761Z,57.60
2022-11-02T18:50:24.456Z,45.80
2022-11-02T18:52:51.671Z,41.10
2022-11-02T18:55:18.590Z,40.70
2022-11-02T18:57:45.267Z,41.30
2022-11-02T19:00:13.262Z,41.70
2022-11-02T19:02:40.537Z,40.30
2022-11-02T19:05:26.850Z,42.60
2022-11-02T19:08:12.306Z,39.60
2022-11-02T19:10:39.984Z,45.10
2022-11-02T19:13:07.280Z,44.70
2022-11-02T19:15:37.335Z,41.80
2022-11-02T19:18:08.175Z,43.10
2022-11-02T19:20:35.345Z,38.50
2022-11-02T19:23:02.282Z,37.60
2022-11-02T19:25:29.086Z,38.80
2022-11-02T19:27:56.353Z,37.50
2022-11-02T19:30:23.368Z,36.20
2022-11-02T19:32:50.105Z,34.50
2022-11-02T19:35:17.002Z,34.50
2022-11-02T19:37:43.765Z,36.20
2022-11-02T19:40:10.931Z,35.40
2022-11-02T19:42:39.300Z,35.50
2022-11-02T19:45:06.480Z,36.40
2022-11-02T19:47:33.477Z,36.40
2022-11-02T19:50:00.208Z,37.90
2022-11-02T19:52:26.986Z,35.20
2022-11-02T19:54:53.763Z,36.70
2022-11-02T19:57:20.648Z,35.10
2022-11-02T19:59:47.526Z,34.90
2022-11-02T20:02:15.121Z,34.00
2022-11-02T20:04:43.699Z,34.50
2022-11-02T20:07:10.774Z,38.30
2022-11-02T20:09:37.580Z,35.50
2022-11-02T20:12:06.964Z,37.10
2022-11-02T20:14:35.783Z,36.70
2022-11-02T20:17:25.264Z,37.00
2022-11-02T20:19:49.514Z,39.80
2022-11-02T20:22:17.915Z,33.70
2022-11-02T20:24:44.809Z,45.60
2022-11-02T20:27:13.380Z,47.50
2022-11-02T20:29:40.191Z,39.10
2022-11-02T20:32:09.737Z,34.10
2022-11-02T20:34:36.579Z,33.30
2022-11-02T20:37:04.644Z,45.00
2022-11-02T20:39:31.408Z,48.00
2022-11-02T20:41:58.217Z,46.30
2022-11-02T20:44:25.166Z,43.80
2022-11-02T20:46:53.572Z,40.70
2022-11-02T20:49:36.375Z,46.90
2022-11-02T20:52:09.493Z,48.10
2022-11-02T20:54:36.510Z,41.60
2022-11-02T20:57:03.661Z,38.80
2022-11-02T20:59:30.512Z,37.10
2022-11-02T21:01:57.366Z,35.10
2022-11-02T21:04:24.280Z,36.10
2022-11-02T21:06:51.245Z,34.20
2022-11-02T21:09:18.427Z,38.40
2022-11-02T21:12:04.784Z,52.50
2022-11-02T21:14:31.846Z,33.50
2022-11-02T21:16:58.668Z,45.80
2022-11-02T21:19:25.488Z,40.50
2022-11-02T21:21:58.131Z,35.30
2022-11-02T21:24:27.826Z,39.90
2022-11-02T21:26:54.552Z,34.10
2022-11-02T21:29:21.363Z,33.80
2022-11-02T21:31:48.439Z,35.00
2022-11-02T21:34:15.581Z,41.00
2022-11-02T21:36:42.245Z,49.90
2022-11-02T21:39:09.177Z,51.70
2022-11-02T21:41:37.993Z,45.70
2022-11-02T21:44:06.728Z,41.50
2022-11-02T21:46:33.730Z,37.30
2022-11-02T21:49:00.943Z,33.80
2022-11-02T21:51:28.155Z,37.20
2022-11-02T21:53:56.039Z,37.20
2022-11-02T21:56:26.499Z,41.90
2022-11-02T21:58:55.455Z,49.00
2022-11-02T22:01:43.740Z,43.90
2022-11-02T22:04:11.688Z,34.80
2022-11-02T22:06:38.702Z,37.40
2022-11-02T22:09:07.463Z,43.00
2022-11-02T22:11:34.297Z,43.10
2022-11-02T22:14:01.711Z,48.00
2022-11-02T22:16:37.118Z,32.70
2022-11-02T22:19:06.352Z,32.50
2022-11-02T22:21:36.254Z,32.10
2022-11-02T22:24:04.138Z,27.20
2022-11-02T22:26:32.161Z,26.10
2022-11-02T22:29:02.083Z,25.50
2022-11-02T22:31:34.498Z,24.40
2022-11-02T22:34:02.980Z,26.60
2022-11-02T22:36:32.188Z,24.90
2022-11-02T22:39:00.623Z,23.70
2022-11-02T22:41:36.195Z,24.00
2022-11-02T22:44:05.956Z,25.30
2022-11-02T22:46:35.857Z,26.70
2022-11-02T22:49:03.991Z,27.80
2022-11-02T22:51:36.359Z,25.30
2022-11-02T22:54:05.473Z,23.90
2022-11-02T22:56:34.380Z,14.60
2022-11-02T22:59:01.665Z,29.30
2022-11-02T23:01:29.966Z,30.60
2022-11-02T23:03:57.570Z,22.80
2022-11-02T23:06:25.355Z,23.10
2022-11-02T23:08:55.193Z,25.00
2022-11-02T23:11:25.601Z,25.20
2022-11-02T23:13:55.349Z,26.80
2022-11-02T23:16:28.014Z,24.50
2022-11-02T23:19:22.146Z,23.20
2022-11-02T23:22:18.517Z,14.70
2022-11-02T23:25:09.981Z,23.20
2022-11-02T23:27:58.813Z,23.50
2022-11-02T23:30:47.159Z,21.10
2022-11-02T23:33:14.807Z,22.30
2022-11-02T23:36:00.492Z,20.80
2022-11-02T23:38:46.836Z,21.80
2022-11-02T23:41:13.889Z,22.80
2022-11-02T23:43:40.927Z,21.20
2022-11-02T23:46:07.751Z,21.70
2022-11-02T23:48:34.673Z,23.60
2022-11-02T23:51:20.387Z,23.20
2022-11-02T23:54:05.666Z,22.20
2022-11-02T23:56:42.964Z,22.10
2022-11-02T23:59:11.260Z,21.40
